createdAt,value
2023-05-03T00:00:45.638Z,90.93
2023-05-03T00:01:45.660Z,90.93
2023-05-03T00:02:45.774Z,91.03
2023-05-03T00:03:45.678Z,91.03
2023-05-03T00:04:45.645Z,91.03
2023-05-03T00:05:45.727Z,91.03
2023-05-03T00:06:45.619Z,90.93
2023-05-03T00:07:45.661Z,91.14
2023-05-03T00:08:45.550Z,91.45
2023-05-03T00:09:45.532Z,91.35
2023-05-03T00:10:45.583Z,91.14
2023-05-03T00:11:45.519Z,91.35
2023-05-03T00:12:45.522Z,91.35
2023-05-03T00:13:45.497Z,91.45
2023-05-03T00:14:45.480Z,91.28
2023-05-03T00:15:45.483Z,91.18
2023-05-03T00:16:45.521Z,91.08
2023-05-03T00:17:45.512Z,91.08
2023-05-03T00:18:46.721Z,91.18
2023-05-03T00:19:45.429Z,91.18
2023-05-03T00:20:45.416Z,91.28
2023-05-03T00:21:45.454Z,91.60
2023-05-03T00:22:45.455Z,91.60
2023-05-03T00:23:45.403Z,91.60
2023-05-03T00:24:45.368Z,91.60
2023-05-03T00:25:45.359Z,92.01
2023-05-03T00:26:45.364Z,91.91
2023-05-03T00:27:45.392Z,91.60
2023-05-03T00:28:45.348Z,91.60
2023-05-03T00:29:45.328Z,91.80
2023-05-03T00:30:45.323Z,92.22
2023-05-03T00:31:45.337Z,92.32
2023-05-03T00:32:45.355Z,92.22
2023-05-03T00:33:45.275Z,92.43
2023-05-03T00:34:45.284Z,92.53
2023-05-03T00:35:45.253Z,92.53
2023-05-03T00:36:45.296Z,92.53
2023-05-03T00:37:45.257Z,92.53
2023-05-03T00:38:45.239Z,92.53
2023-05-03T00:39:45.213Z,92.53
2023-05-03T00:40:45.211Z,92.74
2023-05-03T00:41:45.222Z,92.74
2023-05-03T00:42:45.184Z,92.78
2023-05-03T00:43:45.176Z,92.57
2023-05-03T00:44:45.155Z,92.57
2023-05-03T00:45:45.150Z,92.98
2023-05-03T00:46:45.225Z,93.08
2023-05-03T00:47:45.201Z,93.40
2023-05-03T00:48:45.110Z,93.50
2023-05-03T00:49:45.110Z,93.50
2023-05-03T00:50:45.098Z,93.40
2023-05-03T00:51:45.082Z,93.19
2023-05-03T00:52:45.093Z,93.50
2023-05-03T00:53:45.066Z,93.91
2023-05-03T00:54:45.052Z,93.81
2023-05-03T00:55:45.060Z,94.02
2023-05-03T00:56:51.524Z,94.23
2023-05-03T00:57:46.070Z,94.23
2023-05-03T00:58:45.033Z,94.02
2023-05-03T00:59:44.992Z,94.33
2023-05-03T01:00:45.017Z,94.60
2023-05-03T01:01:45.003Z,94.81
2023-05-03T01:02:45.087Z,94.81
2023-05-03T01:03:45.103Z,94.39
2023-05-03T01:04:44.973Z,93.91
2023-05-03T01:05:44.931Z,93.71
2023-05-03T01:06:44.974Z,93.81
2023-05-03T01:07:44.905Z,94.02
2023-05-03T01:08:44.915Z,93.91
2023-05-03T01:09:44.894Z,93.81
2023-05-03T01:10:44.875Z,93.91
2023-05-03T01:11:44.906Z,93.71
2023-05-03T01:12:44.875Z,93.71
2023-05-03T01:13:44.864Z,93.91
2023-05-03T01:14:44.832Z,93.71
2023-05-03T01:15:44.855Z,93.81
2023-05-03T01:16:44.968Z,93.75
2023-05-03T01:17:44.859Z,93.91
2023-05-03T01:18:44.786Z,94.02
2023-05-03T01:19:44.810Z,94.23
2023-05-03T01:20:44.794Z,94.12
2023-05-03T01:21:44.815Z,93.91
2023-05-03T01:22:44.778Z,93.81
2023-05-03T01:23:44.759Z,93.81
2023-05-03T01:24:44.729Z,93.75
2023-05-03T01:25:44.706Z,93.65
2023-05-03T01:26:44.713Z,93.33
2023-05-03T01:27:44.716Z,93.13
2023-05-03T01:28:44.689Z,92.93
2023-05-03T01:29:44.672Z,93.02
2023-05-03T01:30:44.690Z,93.44
2023-05-03T01:31:44.699Z,93.65
2023-05-03T01:32:44.690Z,93.75
2023-05-03T01:33:44.706Z,93.75
2023-05-03T01:34:44.623Z,93.65
2023-05-03T01:35:44.597Z,93.75
2023-05-03T01:36:44.609Z,94.37
2023-05-03T01:37:44.624Z,94.37
2023-05-03T01:38:44.584Z,94.27
2023-05-03T01:39:44.609Z,94.27
2023-05-03T01:40:44.557Z,94.48
2023-05-03T01:41:44.559Z,94.79
2023-05-03T01:42:44.551Z,94.68
2023-05-03T01:43:44.517Z,94.79
2023-05-03T01:44:44.506Z,94.58
2023-05-03T01:45:44.513Z,94.58
2023-05-03T01:46:44.503Z,94.58
2023-05-03T01:47:44.526Z,94.68
2023-05-03T01:48:44.569Z,94.54
2023-05-03T01:49:44.521Z,94.33
2023-05-03T01:50:44.458Z,94.43
2023-05-03T01:51:44.425Z,94.33
2023-05-03T01:52:44.423Z,94.33
2023-05-03T01:53:44.411Z,94.33
2023-05-03T01:54:44.397Z,94.23
2023-05-03T01:55:44.395Z,94.33
2023-05-03T01:56:44.396Z,94.12
2023-05-03T01:57:44.371Z,94.23
2023-05-03T01:58:44.356Z,94.02
2023-05-03T01:59:44.367Z,93.50
2023-05-03T02:00:44.374Z,93.29
2023-05-03T02:01:44.400Z,93.08
2023-05-03T02:02:44.336Z,93.19
2023-05-03T02:03:44.331Z,93.08
2023-05-03T02:04:44.350Z,92.88
2023-05-03T02:05:44.286Z,93.08
2023-05-03T02:06:44.479Z,92.98
2023-05-03T02:07:44.255Z,92.98
2023-05-03T02:08:44.253Z,93.40
2023-05-03T02:09:44.230Z,93.19
2023-05-03T02:10:44.223Z,93.08
2023-05-03T02:11:44.229Z,92.98
2023-05-03T02:12:44.213Z,93.19
2023-05-03T02:13:44.186Z,93.29
2023-05-03T02:14:44.197Z,93.50
2023-05-03T02:15:44.169Z,93.50
2023-05-03T02:16:44.229Z,93.40
2023-05-03T02:17:44.222Z,93.29
2023-05-03T02:18:44.143Z,93.60
2023-05-03T02:19:44.123Z,93.81
2023-05-03T02:20:44.116Z,93.91
2023-05-03T02:21:44.109Z,93.71
2023-05-03T02:22:44.151Z,94.02
2023-05-03T02:23:44.084Z,94.12
2023-05-03T02:24:44.118Z,93.91
2023-05-03T02:25:44.084Z,93.71
2023-05-03T02:26:44.082Z,93.71
2023-05-03T02:27:44.056Z,93.54
2023-05-03T02:28:44.031Z,93.44
2023-05-03T02:29:44.022Z,93.44
2023-05-03T02:30:44.011Z,93.02
2023-05-03T02:31:44.000Z,93.13
2023-05-03T02:32:44.021Z,93.23
2023-05-03T02:33:43.973Z,93.54
2023-05-03T02:34:43.961Z,93.44
2023-05-03T02:35:43.961Z,93.54
2023-05-03T02:36:43.943Z,93.33
2023-05-03T02:37:43.997Z,93.33
2023-05-03T02:38:43.924Z,93.23
2023-05-03T02:39:43.900Z,93.13
2023-05-03T02:40:43.895Z,93.13
2023-05-03T02:41:43.882Z,93.13
2023-05-03T02:42:43.983Z,93.23
2023-05-03T02:43:43.856Z,93.23
2023-05-03T02:44:43.858Z,92.93
2023-05-03T02:45:43.832Z,93.18
2023-05-03T02:46:43.948Z,93.33
2023-05-03T02:47:43.862Z,93.18
2023-05-03T02:48:43.814Z,93.18
2023-05-03T02:49:43.833Z,93.38
2023-05-03T02:50:43.821Z,93.33
2023-05-03T02:51:43.774Z,93.38
2023-05-03T02:52:43.766Z,93.38
2023-05-03T02:53:43.811Z,93.28
2023-05-03T02:54:43.756Z,93.38
2023-05-03T02:55:43.738Z,93.59
2023-05-03T02:56:43.975Z,93.80
2023-05-03T02:57:43.710Z,93.80
2023-05-03T02:58:43.720Z,93.90
2023-05-03T02:59:43.778Z,93.90
2023-05-03T03:00:43.679Z,93.90
2023-05-03T03:01:44.004Z,94.11
2023-05-03T03:02:43.807Z,93.90
2023-05-03T03:03:43.729Z,94.11
2023-05-03T03:04:43.636Z,93.90
2023-05-03T03:05:43.619Z,93.74
2023-05-03T03:06:43.678Z,93.95
2023-05-03T03:07:43.697Z,94.05
2023-05-03T03:08:43.591Z,94.57
2023-05-03T03:09:43.569Z,94.57
2023-05-03T03:10:43.568Z,94.88
2023-05-03T03:11:43.565Z,94.78
2023-05-03T03:12:43.599Z,94.78
2023-05-03T03:13:43.530Z,94.67
2023-05-03T03:14:43.525Z,94.46
2023-05-03T03:15:43.543Z,94.57
2023-05-03T03:16:43.511Z,94.78
2023-05-03T03:17:43.529Z,94.88
2023-05-03T03:18:43.473Z,94.57
2023-05-03T03:19:43.477Z,94.36
2023-05-03T03:20:43.473Z,94.36
2023-05-03T03:21:43.476Z,94.46
2023-05-03T03:22:43.459Z,94.67
2023-05-03T03:23:43.430Z,94.98
2023-05-03T03:24:43.414Z,94.98
2023-05-03T03:25:43.399Z,95.03
2023-05-03T03:26:43.437Z,95.03
2023-05-03T03:27:43.388Z,95.03
2023-05-03T03:28:43.372Z,94.82
2023-05-03T03:29:43.352Z,94.92
2023-05-03T03:30:43.355Z,94.92
2023-05-03T03:31:43.358Z,94.92
2023-05-03T03:32:43.393Z,95.13
2023-05-03T03:33:43.307Z,95.34
2023-05-03T03:34:43.306Z,95.23
2023-05-03T03:35:43.336Z,95.34
2023-05-03T03:36:43.293Z,95.34
2023-05-03T03:37:43.272Z,95.23
2023-05-03T03:38:43.272Z,95.13
2023-05-03T03:39:43.253Z,95.23
2023-05-03T03:40:43.252Z,95.34
2023-05-03T03:41:43.242Z,95.38
2023-05-03T03:42:43.235Z,95.38
2023-05-03T03:43:43.234Z,95.69
2023-05-03T03:44:43.190Z,95.59
2023-05-03T03:45:43.193Z,95.69
2023-05-03T03:46:43.253Z,95.79
2023-05-03T03:47:43.233Z,95.90
2023-05-03T03:48:43.153Z,96.21
2023-05-03T03:49:43.143Z,96.37
2023-05-03T03:50:43.141Z,96.42
2023-05-03T03:51:43.118Z,96.52
2023-05-03T03:52:43.147Z,96.62
2023-05-03T03:53:43.115Z,96.83
2023-05-03T03:54:43.077Z,96.89
2023-05-03T03:55:43.079Z,96.52
2023-05-03T03:56:43.116Z,96.42
2023-05-03T03:57:43.087Z,96.06
2023-05-03T03:58:43.041Z,95.96
2023-05-03T03:59:43.054Z,95.59
2023-05-03T04:00:43.036Z,95.44
2023-05-03T04:01:43.035Z,95.34
2023-05-03T04:02:43.125Z,95.23
2023-05-03T04:03:43.066Z,94.92
2023-05-03T04:04:42.969Z,94.71
2023-05-03T04:05:42.998Z,94.76
2023-05-03T04:06:43.025Z,94.55
2023-05-03T04:07:43.013Z,94.96
2023-05-03T04:08:42.948Z,94.96
2023-05-03T04:09:42.922Z,94.76
2023-05-03T04:10:42.919Z,94.76
2023-05-03T04:11:42.926Z,94.65
2023-05-03T04:12:42.882Z,94.45
2023-05-03T04:13:42.877Z,94.49
2023-05-03T04:14:42.890Z,94.86
2023-05-03T04:15:42.860Z,95.48
2023-05-03T04:16:42.894Z,95.90
2023-05-03T04:17:42.934Z,95.69
2023-05-03T04:18:42.811Z,96.21
2023-05-03T04:19:42.953Z,96.21
2023-05-03T04:20:42.800Z,95.79
2023-05-03T04:21:42.791Z,95.90
2023-05-03T04:22:42.786Z,95.90
2023-05-03T04:23:42.772Z,96.11
2023-05-03T04:24:42.803Z,96.00
2023-05-03T04:25:42.749Z,96.04
2023-05-03T04:26:42.788Z,96.11
2023-05-03T04:27:42.726Z,96.42
2023-05-03T04:28:42.710Z,96.31
2023-05-03T04:29:42.704Z,96.42
2023-05-03T04:30:42.686Z,96.62
2023-05-03T04:31:42.688Z,96.73
2023-05-03T04:32:42.881Z,96.62
2023-05-03T04:33:42.663Z,96.42
2023-05-03T04:34:42.655Z,96.31
2023-05-03T04:35:42.663Z,96.11
2023-05-03T04:36:42.627Z,96.21
2023-05-03T04:37:42.755Z,95.90
2023-05-03T04:38:42.605Z,96.00
2023-05-03T04:39:42.580Z,96.00
2023-05-03T04:40:42.574Z,95.90
2023-05-03T04:41:42.596Z,95.90
2023-05-03T04:42:42.563Z,95.69
2023-05-03T04:43:42.539Z,95.59
2023-05-03T04:44:42.545Z,95.48
2023-05-03T04:45:42.520Z,95.48
2023-05-03T04:46:42.861Z,95.90
2023-05-03T04:47:42.549Z,95.79
2023-05-03T04:48:42.490Z,95.59
2023-05-03T04:49:42.473Z,95.38
2023-05-03T04:50:42.525Z,95.38
2023-05-03T04:51:42.451Z,95.28
2023-05-03T04:52:42.450Z,95.07
2023-05-03T04:53:42.431Z,95.07
2023-05-03T04:54:42.449Z,94.76
2023-05-03T04:55:42.443Z,94.76
2023-05-03T04:56:42.400Z,94.65
2023-05-03T04:57:42.385Z,94.86
2023-05-03T04:58:42.386Z,94.92
2023-05-03T04:59:42.397Z,94.82
2023-05-03T05:00:42.378Z,94.51
2023-05-03T05:01:42.380Z,94.34
2023-05-03T05:02:42.403Z,94.40
2023-05-03T05:03:42.499Z,94.09
2023-05-03T05:04:42.380Z,93.99
2023-05-03T05:05:42.326Z,94.09
2023-05-03T05:06:42.380Z,93.78
2023-05-03T05:07:42.279Z,93.88
2023-05-03T05:08:42.279Z,93.99
2023-05-03T05:09:42.318Z,93.88
2023-05-03T05:10:42.252Z,93.88
2023-05-03T05:11:42.254Z,93.88
2023-05-03T05:12:42.240Z,93.68
2023-05-03T05:13:42.241Z,93.57
2023-05-03T05:14:42.202Z,93.78
2023-05-03T05:15:42.181Z,93.88
2023-05-03T05:16:42.275Z,93.78
2023-05-03T05:17:42.253Z,93.47
2023-05-03T05:18:42.155Z,93.37
2023-05-03T05:19:42.138Z,93.26
2023-05-03T05:20:42.149Z,93.68
2023-05-03T05:21:42.119Z,93.57
2023-05-03T05:22:42.110Z,93.95
2023-05-03T05:23:42.260Z,93.95
2023-05-03T05:24:42.098Z,93.53
2023-05-03T05:25:42.100Z,93.43
2023-05-03T05:26:42.139Z,93.12
2023-05-03T05:27:42.058Z,92.97
2023-05-03T05:28:42.082Z,92.86
2023-05-03T05:29:42.082Z,93.28
2023-05-03T05:30:42.164Z,93.28
2023-05-03T05:31:42.070Z,93.28
2023-05-03T05:32:42.015Z,92.97
2023-05-03T05:33:41.981Z,92.97
2023-05-03T05:34:45.079Z,92.66
2023-05-03T05:35:41.973Z,92.10
2023-05-03T05:36:41.966Z,91.89
2023-05-03T05:37:41.939Z,91.89
2023-05-03T05:38:41.938Z,91.99
2023-05-03T05:39:41.924Z,91.78
2023-05-03T05:40:41.979Z,91.89
2023-05-03T05:41:41.905Z,91.78
2023-05-03T05:42:41.894Z,91.89
2023-05-03T05:43:41.882Z,91.68
2023-05-03T05:44:41.886Z,91.64
2023-05-03T05:45:41.970Z,91.43
2023-05-03T05:46:41.895Z,91.33
2023-05-03T05:47:41.930Z,90.91
2023-05-03T05:48:41.829Z,90.66
2023-05-03T05:49:41.820Z,90.56
2023-05-03T05:50:41.837Z,90.56
2023-05-03T05:51:41.790Z,91.35
2023-05-03T05:52:41.781Z,91.09
2023-05-03T05:53:41.773Z,90.37
2023-05-03T05:54:41.777Z,90.02
2023-05-03T05:55:41.763Z,89.50
2023-05-03T05:56:41.743Z,88.74
2023-05-03T05:57:41.789Z,87.91
2023-05-03T05:58:41.735Z,86.94
2023-05-03T05:59:41.700Z,86.83
2023-05-03T06:00:41.722Z,86.52
2023-05-03T06:01:41.944Z,85.24
2023-05-03T06:02:42.156Z,85.24
2023-05-03T06:03:41.672Z,84.94
2023-05-03T06:04:41.674Z,84.59
2023-05-03T06:05:41.706Z,83.86
2023-05-03T06:06:41.688Z,83.72
2023-05-03T06:07:41.618Z,82.79
2023-05-03T06:08:41.675Z,83.68
2023-05-03T06:09:41.605Z,84.09
2023-05-03T06:10:41.662Z,82.51
2023-05-03T06:11:41.584Z,82.30
2023-05-03T06:12:41.585Z,82.47
2023-05-03T06:13:41.558Z,81.54
2023-05-03T06:14:51.667Z,80.79
2023-05-03T06:15:42.536Z,80.79
2023-05-03T06:16:41.657Z,79.51
2023-05-03T06:17:41.556Z,79.93
2023-05-03T06:18:41.544Z,79.51
2023-05-03T06:19:43.175Z,78.17
2023-05-03T06:20:41.526Z,77.86
2023-05-03T06:21:41.475Z,77.31
2023-05-03T06:22:41.465Z,77.31
2023-05-03T06:23:41.470Z,78.14
2023-05-03T06:24:41.467Z,78.03
2023-05-03T06:25:41.434Z,75.67
2023-05-03T06:26:41.454Z,75.63
2023-05-03T06:27:41.398Z,76.66
2023-05-03T06:28:41.412Z,75.63
2023-05-03T06:29:41.403Z,75.84
2023-05-03T06:30:41.416Z,75.52
2023-05-03T06:31:41.509Z,75.49
2023-05-03T06:32:41.404Z,75.18
2023-05-03T06:33:41.394Z,74.98
2023-05-03T06:34:41.357Z,73.64
2023-05-03T06:35:41.343Z,74.33
2023-05-03T06:36:41.305Z,74.43
2023-05-03T06:37:41.313Z,74.60
2023-05-03T06:38:41.277Z,73.44
2023-05-03T06:39:41.301Z,73.74
2023-05-03T06:40:41.295Z,73.74
2023-05-03T06:41:41.249Z,72.99
2023-05-03T06:42:41.252Z,71.86
2023-05-03T06:43:41.226Z,71.42
2023-05-03T06:44:41.252Z,71.52
2023-05-03T06:45:41.247Z,70.90
2023-05-03T06:46:41.216Z,69.78
2023-05-03T06:47:41.230Z,69.57
2023-05-03T06:48:41.185Z,69.88
2023-05-03T06:49:41.164Z,69.47
2023-05-03T06:50:41.160Z,70.18
2023-05-03T06:51:41.136Z,69.64
2023-05-03T06:52:41.138Z,70.15
2023-05-03T06:53:41.182Z,70.02
2023-05-03T06:54:41.154Z,71.04
2023-05-03T06:55:41.115Z,70.53
2023-05-03T06:56:41.093Z,70.40
2023-05-03T06:57:41.064Z,68.86
2023-05-03T06:58:41.057Z,68.14
2023-05-03T06:59:41.100Z,68.55
2023-05-03T07:00:41.109Z,67.32
2023-05-03T07:01:41.093Z,67.49
2023-05-03T07:02:41.100Z,67.70
2023-05-03T07:03:42.110Z,66.67
2023-05-03T07:04:41.008Z,67.40
2023-05-03T07:05:41.018Z,65.96
2023-05-03T07:06:55.298Z,66.16
2023-05-03T07:07:41.961Z,65.86
2023-05-03T07:08:40.968Z,66.27
2023-05-03T07:09:43.465Z,66.60
2023-05-03T07:10:40.974Z,66.88
2023-05-03T07:11:40.934Z,67.70
2023-05-03T07:12:40.903Z,66.44
2023-05-03T07:13:40.903Z,65.42
2023-05-03T07:14:40.909Z,65.93
2023-05-03T07:15:40.876Z,65.39
2023-05-03T07:16:40.900Z,65.08
2023-05-03T07:17:40.903Z,66.00
2023-05-03T07:18:40.834Z,65.90
2023-05-03T07:19:40.839Z,66.20
2023-05-03T07:20:40.816Z,65.77
2023-05-03T07:21:40.802Z,64.84
2023-05-03T07:22:40.787Z,64.95
2023-05-03T07:23:40.860Z,64.51
2023-05-03T07:24:40.841Z,64.71
2023-05-03T07:25:40.824Z,65.73
2023-05-03T07:26:41.990Z,64.10
2023-05-03T07:27:40.751Z,64.51
2023-05-03T07:28:40.765Z,63.45
2023-05-03T07:29:40.729Z,62.16
2023-05-03T07:30:40.698Z,64.30
2023-05-03T07:31:40.709Z,64.40
2023-05-03T07:32:40.926Z,64.58
2023-05-03T07:33:40.816Z,64.17
2023-05-03T07:34:40.678Z,63.22
2023-05-03T07:35:40.652Z,62.40
2023-05-03T07:36:40.656Z,62.20
2023-05-03T07:37:40.638Z,63.22
2023-05-03T07:38:40.613Z,62.78
2023-05-03T07:39:40.639Z,63.09
2023-05-03T07:40:40.624Z,62.27
2023-05-03T07:41:40.583Z,61.46
2023-05-03T07:42:40.571Z,61.35
2023-05-03T07:43:40.565Z,60.71
2023-05-03T07:44:40.900Z,60.74
2023-05-03T07:45:40.616Z,60.74
2023-05-03T07:46:40.523Z,61.02
2023-05-03T07:47:40.579Z,60.61
2023-05-03T07:48:40.556Z,60.78
2023-05-03T07:49:40.547Z,59.69
2023-05-03T07:50:40.484Z,59.80
2023-05-03T07:51:40.497Z,60.82
2023-05-03T07:52:40.477Z,60.48
2023-05-03T07:53:40.445Z,59.77
2023-05-03T07:54:40.434Z,60.05
2023-05-03T07:55:40.429Z,60.22
2023-05-03T07:56:40.427Z,60.32
2023-05-03T07:57:40.397Z,59.38
2023-05-03T07:58:41.198Z,58.56
2023-05-03T07:59:40.398Z,59.35
2023-05-03T08:00:40.367Z,58.74
2023-05-03T08:01:40.369Z,58.53
2023-05-03T08:02:40.474Z,58.13
2023-05-03T08:03:40.613Z,56.60
2023-05-03T08:04:40.544Z,56.70
2023-05-03T08:05:40.396Z,57.82
2023-05-03T08:06:40.349Z,58.20
2023-05-03T08:07:40.291Z,57.79
2023-05-03T08:08:40.317Z,57.87
2023-05-03T08:09:40.274Z,56.85
2023-05-03T08:10:40.264Z,56.34
2023-05-03T08:11:43.176Z,56.45
2023-05-03T08:12:40.242Z,57.03
2023-05-03T08:13:40.231Z,56.52
2023-05-03T08:14:40.254Z,55.60
2023-05-03T08:15:40.264Z,56.82
2023-05-03T08:16:40.214Z,55.22
2023-05-03T08:17:40.217Z,56.29
2023-05-03T08:18:40.181Z,55.46
2023-05-03T08:19:40.188Z,55.66
2023-05-03T08:20:40.163Z,56.65
2023-05-03T08:21:40.146Z,56.85
2023-05-03T08:22:40.139Z,55.81
2023-05-03T08:23:40.119Z,55.10
2023-05-03T08:24:40.127Z,55.81
2023-05-03T08:25:40.118Z,56.29
2023-05-03T08:26:40.093Z,55.38
2023-05-03T08:27:40.082Z,56.39
2023-05-03T08:28:40.115Z,54.87
2023-05-03T08:29:40.075Z,53.65
2023-05-03T08:30:40.054Z,54.87
2023-05-03T08:31:40.160Z,54.46
2023-05-03T08:32:40.073Z,54.87
2023-05-03T08:33:40.025Z,53.75
2023-05-03T08:34:40.052Z,54.64
2023-05-03T08:35:40.017Z,53.72
2023-05-03T08:36:39.987Z,53.70
2023-05-03T08:37:39.994Z,53.50
2023-05-03T08:38:39.967Z,53.91
2023-05-03T08:39:39.961Z,54.03
2023-05-03T08:40:39.960Z,54.24
2023-05-03T08:41:39.957Z,54.03
2023-05-03T08:42:39.920Z,54.64
2023-05-03T08:43:39.954Z,53.80
2023-05-03T08:44:39.916Z,52.79
2023-05-03T08:45:39.891Z,51.57
2023-05-03T08:46:39.899Z,53.09
2023-05-03T08:47:39.934Z,53.06
2023-05-03T08:48:39.869Z,52.25
2023-05-03T08:49:39.885Z,52.66
2023-05-03T08:50:39.874Z,51.95
2023-05-03T08:51:39.841Z,50.73
2023-05-03T08:52:40.786Z,52.25
2023-05-03T08:53:39.816Z,52.15
2023-05-03T08:54:39.865Z,51.44
2023-05-03T08:55:39.805Z,50.84
2023-05-03T08:56:39.792Z,50.35
2023-05-03T08:57:39.749Z,52.38
2023-05-03T08:58:39.778Z,54.08
2023-05-03T08:59:39.794Z,50.45
2023-05-03T09:00:39.741Z,51.46
2023-05-03T09:01:39.760Z,51.16
2023-05-03T09:02:40.047Z,52.69
2023-05-03T09:03:39.911Z,52.58
2023-05-03T09:04:39.707Z,52.86
2023-05-03T09:05:39.685Z,52.05
2023-05-03T09:06:39.722Z,51.34
2023-05-03T09:07:39.689Z,51.82
2023-05-03T09:08:39.695Z,51.62
2023-05-03T09:09:39.633Z,50.51
2023-05-03T09:10:39.618Z,50.33
2023-05-03T09:11:39.615Z,50.73
2023-05-03T09:12:39.628Z,51.54
2023-05-03T09:13:39.614Z,51.32
2023-05-03T09:14:39.629Z,50.51
2023-05-03T09:15:39.575Z,51.82
2023-05-03T09:16:39.590Z,49.59
2023-05-03T09:17:39.602Z,50.84
2023-05-03T09:18:39.534Z,49.41
2023-05-03T09:19:39.616Z,50.53
2023-05-03T09:20:39.546Z,50.23
2023-05-03T09:21:39.494Z,50.60
2023-05-03T09:22:39.502Z,50.08
2023-05-03T09:23:39.482Z,49.82
2023-05-03T09:24:39.491Z,50.86
2023-05-03T09:25:39.483Z,51.85
2023-05-03T09:26:39.471Z,50.43
2023-05-03T09:27:39.456Z,50.93
2023-05-03T09:28:39.459Z,53.75
2023-05-03T09:29:39.501Z,51.70
2023-05-03T09:30:39.421Z,51.27
2023-05-03T09:31:39.429Z,50.05
2023-05-03T09:32:39.425Z,51.57
2023-05-03T09:33:39.380Z,51.14
2023-05-03T09:34:39.406Z,50.13
2023-05-03T09:35:39.375Z,51.07
2023-05-03T09:36:39.345Z,50.35
2023-05-03T09:37:39.334Z,50.84
2023-05-03T09:38:39.339Z,50.13
2023-05-03T09:39:39.335Z,50.43
2023-05-03T09:40:39.615Z,50.13
2023-05-03T09:41:39.295Z,48.41
2023-05-03T09:42:39.284Z,47.62
2023-05-03T09:43:39.277Z,49.04
2023-05-03T09:44:39.279Z,50.05
2023-05-03T09:45:39.283Z,49.75
2023-05-03T09:46:39.247Z,50.05
2023-05-03T09:47:39.254Z,50.34
2023-05-03T09:48:39.238Z,50.54
2023-05-03T09:49:39.225Z,50.23
2023-05-03T09:50:39.208Z,52.03
2023-05-03T09:51:39.190Z,48.99
2023-05-03T09:52:39.196Z,48.79
2023-05-03T09:53:39.175Z,49.50
2023-05-03T09:54:39.175Z,48.08
2023-05-03T09:55:39.170Z,48.79
2023-05-03T09:56:39.163Z,47.30
2023-05-03T09:57:39.174Z,47.70
2023-05-03T09:58:39.139Z,49.02
2023-05-03T09:59:39.137Z,49.32
2023-05-03T10:00:39.105Z,48.51
2023-05-03T10:01:39.138Z,49.80
2023-05-03T10:02:39.118Z,48.79
2023-05-03T10:03:39.150Z,48.79
2023-05-03T10:04:39.113Z,49.30
2023-05-03T10:05:39.049Z,47.07
2023-05-03T10:06:39.078Z,47.38
2023-05-03T10:07:39.028Z,48.39
2023-05-03T10:08:39.036Z,48.99
2023-05-03T10:09:39.033Z,48.99
2023-05-03T10:10:39.030Z,50.49
2023-05-03T10:11:38.999Z,49.55
2023-05-03T10:12:38.976Z,49.96
2023-05-03T10:13:38.988Z,48.95
2023-05-03T10:14:39.006Z,48.44
2023-05-03T10:15:38.968Z,47.61
2023-05-03T10:16:39.016Z,48.42
2023-05-03T10:18:38.960Z,46.52
2023-05-03T10:19:38.971Z,47.45
2023-05-03T10:20:38.909Z,50.26
2023-05-03T10:21:38.897Z,48.34
2023-05-03T10:22:38.889Z,48.44
2023-05-03T10:23:38.904Z,47.71
2023-05-03T10:24:38.925Z,47.11
2023-05-03T10:25:38.895Z,48.02
2023-05-03T10:26:38.848Z,48.42
2023-05-03T10:27:38.836Z,47.08
2023-05-03T10:28:38.838Z,46.80
2023-05-03T10:29:38.837Z,46.40
2023-05-03T10:30:38.824Z,45.89
2023-05-03T10:31:38.816Z,47.63
2023-05-03T10:32:38.818Z,47.41
2023-05-03T10:33:38.780Z,46.22
2023-05-03T10:34:38.764Z,47.53
2023-05-03T10:35:38.757Z,48.14
2023-05-03T10:36:48.762Z,48.03
2023-05-03T10:37:39.781Z,47.94
2023-05-03T10:38:38.741Z,46.30
2023-05-03T10:39:38.715Z,46.62
2023-05-03T10:40:38.699Z,46.42
2023-05-03T10:41:38.701Z,46.52
2023-05-03T10:42:38.679Z,46.30
2023-05-03T10:43:38.690Z,46.70
2023-05-03T10:44:38.696Z,48.42
2023-05-03T10:45:38.687Z,46.78
2023-05-03T10:46:38.801Z,46.66
2023-05-03T10:47:38.704Z,49.28
2023-05-03T10:48:38.620Z,45.14
2023-05-03T10:49:38.641Z,45.04
2023-05-03T10:50:38.590Z,46.07
2023-05-03T10:51:38.647Z,46.58
2023-05-03T10:52:38.621Z,46.37
2023-05-03T10:53:38.601Z,46.56
2023-05-03T10:54:38.560Z,44.46
2023-05-03T10:55:38.576Z,45.16
2023-05-03T10:56:38.536Z,44.56
2023-05-03T10:57:40.400Z,45.06
2023-05-03T10:58:38.550Z,45.16
2023-05-03T10:59:38.560Z,47.16
2023-05-03T11:00:38.547Z,45.04
2023-05-03T11:01:38.621Z,44.35
2023-05-03T11:02:38.605Z,45.77
2023-05-03T11:03:38.476Z,46.86
2023-05-03T11:04:38.604Z,45.62
2023-05-03T11:05:38.496Z,46.53
2023-05-03T11:06:38.519Z,47.74
2023-05-03T11:07:38.453Z,45.73
2023-05-03T11:08:38.539Z,44.92
2023-05-03T11:09:38.418Z,45.73
2023-05-03T11:10:38.398Z,47.44
2023-05-03T11:11:38.438Z,45.62
2023-05-03T11:12:38.374Z,48.45
2023-05-03T11:13:38.646Z,44.62
2023-05-03T11:14:38.401Z,45.14
2023-05-03T11:15:38.352Z,45.81
2023-05-03T11:16:38.396Z,43.38
2023-05-03T11:17:38.368Z,43.89
2023-05-03T11:18:38.360Z,46.09
2023-05-03T11:19:38.343Z,43.06
2023-05-03T11:20:38.309Z,43.77
2023-05-03T11:21:38.313Z,43.06
2023-05-03T11:22:38.283Z,44.85
2023-05-03T11:23:38.298Z,41.55
2023-05-03T11:24:38.262Z,44.47
2023-05-03T11:25:38.256Z,43.38
2023-05-03T11:26:38.276Z,43.99
2023-05-03T11:27:38.243Z,41.56
2023-05-03T11:28:38.251Z,45.07
2023-05-03T11:29:38.241Z,43.24
2023-05-03T11:30:38.235Z,41.14
2023-05-03T11:31:38.244Z,41.67
2023-05-03T11:32:38.295Z,42.25
2023-05-03T11:33:38.199Z,42.15
2023-05-03T11:34:38.189Z,41.87
2023-05-03T11:35:38.211Z,40.66
2023-05-03T11:36:38.286Z,41.08
2023-05-03T11:37:38.178Z,42.18
2023-05-03T11:38:38.157Z,43.89
2023-05-03T11:39:38.235Z,44.87
2023-05-03T11:40:38.119Z,44.55
2023-05-03T11:41:38.118Z,42.84
2023-05-03T11:42:38.162Z,42.74
2023-05-03T11:43:38.118Z,43.22
2023-05-03T11:44:38.086Z,44.75
2023-05-03T11:45:38.110Z,43.26
2023-05-03T11:46:38.287Z,43.26
2023-05-03T11:47:38.078Z,43.95
2023-05-03T11:48:38.070Z,42.35
2023-05-03T11:49:38.017Z,42.96
2023-05-03T11:50:38.012Z,44.05
2023-05-03T11:51:38.073Z,44.25
2023-05-03T11:52:38.063Z,43.34
2023-05-03T11:53:38.040Z,44.45
2023-05-03T11:54:38.063Z,43.32
2023-05-03T11:55:37.973Z,43.82
2023-05-03T11:56:37.955Z,43.12
2023-05-03T11:57:37.959Z,42.21
2023-05-03T11:58:37.966Z,41.91
2023-05-03T11:59:38.098Z,40.01
2023-05-03T12:00:37.923Z,43.74
2023-05-03T12:01:37.931Z,43.95
2023-05-03T12:02:38.114Z,42.86
2023-05-03T12:03:38.129Z,43.74
2023-05-03T12:04:38.192Z,43.22
2023-05-03T12:05:38.210Z,44.53
2023-05-03T12:06:38.961Z,44.75
2023-05-03T12:07:38.094Z,44.05
2023-05-03T12:08:41.076Z,43.26
2023-05-03T12:09:39.365Z,44.47
2023-05-03T12:10:38.452Z,45.18
2023-05-03T12:11:39.825Z,44.95
2023-05-03T12:12:41.531Z,42.03
2023-05-03T12:13:40.340Z,41.31
2023-05-03T12:14:39.166Z,43.20
2023-05-03T12:15:38.020Z,41.47
2023-05-03T12:16:37.892Z,42.05
2023-05-03T12:17:39.058Z,42.46
2023-05-03T12:18:39.766Z,39.88
2023-05-03T12:21:38.112Z,41.79
2023-05-03T12:22:38.046Z,40.69
2023-05-03T12:23:37.851Z,40.28
2023-05-03T12:24:39.325Z,41.99
2023-05-03T12:25:39.768Z,42.10
2023-05-03T12:26:38.063Z,41.59
2023-05-03T12:27:39.304Z,41.06
2023-05-03T12:28:37.755Z,41.69
2023-05-03T12:29:37.872Z,43.91
2023-05-03T12:30:40.029Z,43.59
2023-05-03T12:31:39.472Z,40.46
2023-05-03T12:32:39.149Z,41.37
2023-05-03T12:33:38.793Z,40.36
2023-05-03T12:34:40.878Z,40.46
2023-05-03T12:35:40.155Z,39.78
2023-05-03T12:36:38.403Z,40.69
2023-05-03T12:37:38.441Z,39.88
2023-05-03T12:38:38.073Z,41.39
2023-05-03T12:39:39.545Z,40.28
2023-05-03T12:40:37.783Z,40.18
2023-05-03T12:42:37.557Z,41.17
2023-05-03T12:43:37.678Z,41.97
2023-05-03T12:44:39.974Z,44.09
2023-05-03T12:45:40.641Z,42.68
2023-05-03T12:46:37.669Z,43.51
2023-05-03T12:47:37.750Z,43.60
2023-05-03T12:48:37.879Z,44.11
2023-05-03T12:49:39.194Z,43.10
2023-05-03T12:50:39.358Z,42.70
2023-05-03T12:51:41.953Z,41.29
2023-05-03T12:52:39.137Z,43.20
2023-05-03T12:53:39.010Z,42.40
2023-05-03T12:54:41.523Z,43.91
2023-05-03T12:55:41.890Z,44.59
2023-05-03T12:56:40.220Z,44.57